KSSI/SSI METAR and TAF weather

Enter ICAO airport designator
Station Type Date Time Source
KSSI METAR 2019/05/23 18:53 UTC NOAA

KSSI 231853Z AUTO 10012KT 10SM SCT024 29/20 A3024 RMK AO2 SLP240 T02940200


Station Type Date Time Source
KSSI Decoded METAR 2019/05/23 18:53 UTC NOAA

BRUNSWICK MC KINNON AIRPORT , GA, United States (KSSI) 31-09N 081-23W 6M
May 23, 2019 - 02:53 PM EDT / 2019.05.23 1853 UTC
Wind: from the E (100 degrees) at 14 MPH (12 KT):0
Visibility: 10 mile(s):0
Sky conditions: partly cloudy
Temperature: 84.9 F (29.4 C)
Dew Point: 68.0 F (20.0 C)
Relative Humidity: 57%
Pressure (altimeter): 30.24 in. Hg (1024 hPa)
ob: KSSI 231853Z AUTO 10012KT 10SM SCT024 29/20 A3024 RMK AO2 SLP240 T02940200
cycle: 19

Station Type Date Time Source
KSSI TAF 2019/05/23 18:27 UTC NOAA

TAF KSSI 231723Z 2318/2418 10012G18KT P6SM SCT030
FM240100 11007KT P6SM FEW025
FM240700 VRB03KT P6SM SCT020
FM241400 14006KT P6SM SCT030

Example: see airport list